createdAt,value
2022-11-20T00:01:17.838Z,143361.13
2022-11-20T00:03:45.541Z,143345.47
2022-11-20T00:06:18.253Z,143256.22
2022-11-20T00:08:46.239Z,143357.50
2022-11-20T00:11:18.686Z,143347.84
2022-11-20T00:13:46.006Z,143349.06
2022-11-20T00:16:14.723Z,143318.94
2022-11-20T00:18:43.172Z,143321.31
2022-11-20T00:21:29.635Z,143335.78
2022-11-20T00:23:58.021Z,143350.28
2022-11-20T00:26:26.437Z,143350.28
2022-11-20T00:28:55.932Z,143335.78
2022-11-20T00:31:23.263Z,143345.47
2022-11-20T00:33:50.481Z,143338.22
2022-11-20T00:36:19.900Z,143326.13
2022-11-20T00:38:47.164Z,143352.69
2022-11-20T00:41:16.402Z,143370.78
2022-11-20T00:43:44.153Z,143381.66
2022-11-20T00:46:17.331Z,143384.03
2022-11-20T00:48:45.244Z,143381.66
2022-11-20T00:51:14.180Z,143396.13
2022-11-20T00:53:41.194Z,143400.94
2022-11-20T00:56:11.766Z,143390.06
2022-11-20T00:58:40.332Z,143415.41
2022-11-20T01:01:10.051Z,143412.97
2022-11-20T01:03:40.001Z,143326.13
2022-11-20T01:06:12.593Z,143406.97
2022-11-20T01:08:39.734Z,143428.69
2022-11-20T01:11:09.950Z,143408.16
2022-11-20T01:13:41.260Z,143408.16
2022-11-20T01:16:18.665Z,143404.56
2022-11-20T01:18:48.998Z,143403.34
2022-11-20T01:21:19.638Z,143412.97
2022-11-20T01:23:48.010Z,143386.47
2022-11-20T01:26:28.003Z,143388.88
2022-11-20T01:28:55.964Z,143380.41
2022-11-20T01:31:27.760Z,143409.41
2022-11-20T01:33:57.157Z,143410.59
2022-11-20T01:36:26.105Z,143287.56
2022-11-20T01:38:57.541Z,143410.59
2022-11-20T01:41:44.565Z,143404.56
2022-11-20T01:44:13.513Z,143396.13
2022-11-20T01:47:00.039Z,143399.75
2022-11-20T01:49:39.970Z,143381.66
2022-11-20T01:52:39.921Z,143400.94
2022-11-20T01:55:15.935Z,143410.59
2022-11-20T01:57:45.331Z,143429.88
2022-11-20T02:00:15.516Z,143432.31
2022-11-20T02:02:50.794Z,143433.50
2022-11-20T02:05:29.094Z,143451.63
2022-11-20T02:07:58.281Z,143449.19
2022-11-20T02:10:26.056Z,143454.03
2022-11-20T02:13:12.360Z,143371.97
2022-11-20T02:15:39.550Z,143451.63
2022-11-20T02:18:07.006Z,143464.88
2022-11-20T02:20:34.116Z,143454.03
2022-11-20T02:23:19.974Z,143472.16
2022-11-20T02:25:48.340Z,143458.88
2022-11-20T02:28:17.552Z,143350.28
2022-11-20T02:30:44.625Z,143425.06
2022-11-20T02:33:11.614Z,143444.34
2022-11-20T02:35:44.755Z,143432.31
2022-11-20T02:38:11.948Z,143439.53
2022-11-20T02:40:38.924Z,143451.63
2022-11-20T02:43:05.965Z,143444.34
2022-11-20T02:45:32.974Z,143455.25
2022-11-20T02:47:59.978Z,143451.63
2022-11-20T02:50:27.078Z,143462.44
2022-11-20T02:52:54.152Z,143468.50
2022-11-20T02:55:21.111Z,143454.03
2022-11-20T02:57:48.116Z,143475.72
2022-11-20T03:00:15.352Z,143441.97
2022-11-20T03:02:42.337Z,143446.78
2022-11-20T03:05:09.311Z,143484.19
2022-11-20T03:07:36.373Z,143497.47
2022-11-20T03:10:04.576Z,143492.63
2022-11-20T03:12:31.575Z,143499.91
2022-11-20T03:14:58.534Z,143499.91
2022-11-20T03:17:25.557Z,143502.28
2022-11-20T03:19:53.079Z,143390.06
2022-11-20T03:22:20.088Z,143495.06
2022-11-20T03:24:47.200Z,143490.25
2022-11-20T03:27:14.336Z,143485.38
2022-11-20T03:29:41.312Z,143504.72
2022-11-20T03:32:08.338Z,143510.72
2022-11-20T03:34:35.290Z,143519.19
2022-11-20T03:37:02.251Z,143516.75
2022-11-20T03:39:29.201Z,143520.38
2022-11-20T03:41:56.158Z,143516.75
2022-11-20T03:44:23.298Z,143444.34
2022-11-20T03:46:50.271Z,143490.25
2022-11-20T03:49:17.227Z,143497.47
2022-11-20T03:51:44.467Z,143486.63
2022-11-20T03:54:11.427Z,143505.91
2022-11-20T03:56:40.154Z,143412.97
2022-11-20T03:59:07.539Z,143497.47
2022-11-20T04:01:38.255Z,143426.25
2022-11-20T04:04:05.842Z,143511.94
2022-11-20T04:06:38.786Z,143499.91
2022-11-20T04:09:06.621Z,143504.72
2022-11-20T04:11:37.099Z,143495.06
2022-11-20T04:14:06.801Z,143511.94
2022-11-20T04:16:36.316Z,143504.72
2022-11-20T04:19:05.847Z,143476.97
2022-11-20T04:21:33.196Z,143487.81
2022-11-20T04:24:00.179Z,143518.00
2022-11-20T04:26:28.803Z,143509.53
2022-11-20T04:28:56.391Z,143468.50
2022-11-20T04:31:25.792Z,143526.44
2022-11-20T04:33:53.449Z,143524.00
2022-11-20T04:36:21.728Z,143524.00
2022-11-20T04:38:56.717Z,143519.19
2022-11-20T04:41:27.188Z,143504.72
2022-11-20T04:44:00.752Z,143530.03
2022-11-20T04:46:29.000Z,143526.44
2022-11-20T04:48:56.023Z,143483.00
2022-11-20T04:51:23.417Z,143438.34
2022-11-20T04:53:50.502Z,143518.00
2022-11-20T04:56:17.577Z,143526.44
2022-11-20T04:58:44.634Z,143531.28
2022-11-20T05:01:20.550Z,143521.56
2022-11-20T05:03:48.305Z,143525.22
2022-11-20T05:06:17.552Z,143530.03
2022-11-20T05:08:44.607Z,143507.09
2022-11-20T05:11:17.142Z,143510.72
2022-11-20T05:13:44.525Z,143515.56
2022-11-20T05:16:14.343Z,143515.56
2022-11-20T05:18:42.429Z,143521.56
2022-11-20T05:21:10.952Z,143515.56
2022-11-20T05:23:38.287Z,143528.84
2022-11-20T05:26:07.817Z,143531.28
2022-11-20T05:28:35.589Z,143552.97
2022-11-20T05:31:10.928Z,143551.75
2022-11-20T05:33:40.369Z,143543.31
2022-11-20T05:36:08.073Z,143533.66
2022-11-20T05:38:35.114Z,143526.44
2022-11-20T05:41:16.185Z,143538.50
2022-11-20T05:43:45.111Z,143544.56
2022-11-20T05:46:13.992Z,143531.28
2022-11-20T05:48:42.608Z,143528.84
2022-11-20T05:51:12.001Z,143526.44
2022-11-20T05:53:42.529Z,143458.88
2022-11-20T05:56:17.457Z,143560.22
2022-11-20T05:58:45.236Z,143555.41
2022-11-20T06:01:21.090Z,143562.66
2022-11-20T06:03:48.723Z,143542.13
2022-11-20T06:06:16.902Z,143545.75
2022-11-20T06:08:45.272Z,143562.66
2022-11-20T06:11:13.648Z,143545.75
2022-11-20T06:13:42.562Z,143555.41
2022-11-20T06:16:11.528Z,143549.38
2022-11-20T06:18:38.985Z,143536.09
2022-11-20T06:21:07.465Z,143560.22
2022-11-20T06:23:35.884Z,143545.75
2022-11-20T06:26:07.858Z,143567.47
2022-11-20T06:28:35.426Z,143565.06
2022-11-20T06:31:03.630Z,143569.88
2022-11-20T06:33:31.140Z,143531.28
2022-11-20T06:36:01.811Z,143502.28
2022-11-20T06:38:31.586Z,143507.09
2022-11-20T06:40:58.570Z,143490.25
2022-11-20T06:43:26.647Z,143485.38
2022-11-20T06:45:58.270Z,143510.72
2022-11-20T06:48:27.344Z,143495.06
2022-11-20T06:50:54.364Z,143505.91
2022-11-20T06:53:22.760Z,143526.44
2022-11-20T06:55:51.533Z,143527.66
2022-11-20T06:58:19.100Z,143420.25
2022-11-20T07:00:46.316Z,143521.56
2022-11-20T07:03:14.116Z,143543.31
2022-11-20T07:05:41.604Z,143518.00
2022-11-20T07:08:09.118Z,143543.31
2022-11-20T07:10:36.458Z,143567.47
2022-11-20T07:13:03.502Z,143556.59
2022-11-20T07:15:30.848Z,143429.88
2022-11-20T07:18:00.974Z,143543.31
2022-11-20T07:20:28.634Z,143545.75
2022-11-20T07:22:56.834Z,143556.59
2022-11-20T07:25:28.234Z,143555.41
2022-11-20T07:27:59.464Z,143548.13
2022-11-20T07:30:27.766Z,143534.84
2022-11-20T07:32:56.528Z,143507.09
2022-11-20T07:35:24.973Z,143549.38
2022-11-20T07:37:51.957Z,143581.97
2022-11-20T07:40:19.680Z,143563.84
2022-11-20T07:42:54.888Z,143527.66
2022-11-20T07:45:24.157Z,143591.63
2022-11-20T07:47:51.747Z,143578.31
2022-11-20T07:50:19.957Z,143555.41
2022-11-20T07:52:47.030Z,143566.25
2022-11-20T07:55:14.335Z,143575.91
2022-11-20T07:57:41.395Z,143575.91
2022-11-20T08:00:10.868Z,143562.66
2022-11-20T08:02:41.965Z,143627.81
2022-11-20T08:05:10.669Z,143650.75
2022-11-20T08:07:39.393Z,143641.09
2022-11-20T08:10:07.567Z,143651.97
2022-11-20T08:12:53.538Z,143666.44
2022-11-20T08:15:21.117Z,143683.34
2022-11-20T08:18:08.230Z,143654.41
2022-11-20T08:20:35.747Z,143697.84
2022-11-20T08:23:04.764Z,143712.38
2022-11-20T08:25:32.889Z,143738.91
2022-11-20T08:28:03.391Z,143712.38
2022-11-20T08:30:35.231Z,143748.59
2022-11-20T08:33:09.249Z,143729.25
2022-11-20T08:35:37.300Z,143765.47
2022-11-20T08:38:06.065Z,143741.34
2022-11-20T08:40:33.366Z,143763.09
2022-11-20T08:43:00.487Z,143760.63
2022-11-20T08:45:33.438Z,143777.56
2022-11-20T08:48:03.027Z,143743.78
2022-11-20T08:50:32.886Z,143813.81
2022-11-20T08:53:05.474Z,143813.81
2022-11-20T08:55:32.958Z,143830.72
2022-11-20T08:58:04.484Z,143766.72
2022-11-20T09:00:31.573Z,143840.38
2022-11-20T09:02:59.515Z,143842.78
2022-11-20T09:05:26.515Z,143871.81
2022-11-20T09:07:57.180Z,143915.28
2022-11-20T09:10:25.078Z,143904.41
2022-11-20T09:12:53.237Z,143887.50
2022-11-20T09:15:20.382Z,143908.06
2022-11-20T09:17:53.212Z,143909.25
2022-11-20T09:20:21.012Z,143879.03
2022-11-20T09:22:48.242Z,143932.22
2022-11-20T09:25:15.579Z,143940.69
2022-11-20T09:27:44.587Z,143995.06
2022-11-20T09:30:12.933Z,143973.31
2022-11-20T09:32:40.616Z,143935.84
2022-11-20T09:35:08.763Z,143903.22
2022-11-20T09:37:35.927Z,144002.34
2022-11-20T09:40:03.272Z,143938.25
2022-11-20T09:43:09.853Z,143992.63
2022-11-20T09:45:49.014Z,144009.56
2022-11-20T09:48:36.184Z,144021.66
2022-11-20T09:51:37.265Z,144043.44
2022-11-20T09:54:19.667Z,144060.34
2022-11-20T09:56:55.587Z,144055.50
2022-11-20T09:59:33.353Z,144089.38
2022-11-20T10:02:02.038Z,143970.91
2022-11-20T10:04:36.700Z,144055.50
2022-11-20T10:07:32.715Z,144070.03
2022-11-20T10:10:00.540Z,144085.75
2022-11-20T10:12:50.009Z,144118.38
2022-11-20T10:15:34.829Z,144147.44
2022-11-20T10:18:30.930Z,144145.00
2022-11-20T10:21:10.728Z,144157.09
2022-11-20T10:24:13.888Z,144142.59
2022-11-20T10:26:40.766Z,144183.72
2022-11-20T10:29:14.847Z,144151.03
2022-11-20T10:31:45.303Z,144216.38
2022-11-20T10:34:44.038Z,144220.00
2022-11-20T10:37:16.997Z,144294.97
2022-11-20T10:40:15.991Z,144303.47
2022-11-20T10:42:44.828Z,144296.19
2022-11-20T10:45:30.450Z,144316.78
2022-11-20T10:48:17.938Z,144309.50
2022-11-20T10:51:00.435Z,144275.63
2022-11-20T10:53:51.930Z,144281.66
2022-11-20T10:56:30.886Z,144292.59
2022-11-20T10:59:28.695Z,144314.34
2022-11-20T11:01:55.703Z,144344.59
2022-11-20T11:04:41.611Z,144338.56
2022-11-20T11:07:17.786Z,144324.06
2022-11-20T11:09:48.963Z,144298.63
2022-11-20T11:12:16.177Z,144311.94
2022-11-20T11:14:48.252Z,144278.03
2022-11-20T11:17:32.850Z,144265.97
2022-11-20T11:20:04.444Z,144220.00
2022-11-20T11:22:33.883Z,144251.47
2022-11-20T11:25:01.494Z,144257.50
2022-11-20T11:27:28.551Z,144286.50
2022-11-20T11:30:16.116Z,144261.13
2022-11-20T11:32:43.264Z,144292.59
2022-11-20T11:35:30.520Z,144316.78
2022-11-20T11:38:16.540Z,144314.34
2022-11-20T11:40:44.464Z,144287.75
2022-11-20T11:43:41.805Z,144321.59
2022-11-20T11:46:20.958Z,144417.22
2022-11-20T11:49:02.456Z,144409.94
2022-11-20T11:52:11.567Z,144355.47
2022-11-20T11:54:51.964Z,144331.28
2022-11-20T11:58:10.169Z,144344.59
2022-11-20T12:00:42.371Z,144238.16
2022-11-20T12:03:18.685Z,144298.63
2022-11-20T12:05:50.576Z,144330.09
2022-11-20T12:08:30.844Z,144344.59
2022-11-20T12:11:07.748Z,144336.13
2022-11-20T12:13:34.742Z,144316.78
2022-11-20T12:16:03.643Z,144299.81
2022-11-20T12:18:31.890Z,144280.47
2022-11-20T12:21:40.037Z,144273.19
2022-11-20T12:24:35.870Z,144253.84
2022-11-20T12:27:14.632Z,144249.00
2022-11-20T12:29:50.215Z,144234.50
2022-11-20T12:32:17.171Z,144227.22
2022-11-20T12:35:11.398Z,144236.91
2022-11-20T12:37:44.809Z,144238.16
2022-11-20T12:40:20.660Z,144229.66
2022-11-20T12:43:18.151Z,144236.91
2022-11-20T12:45:45.132Z,144239.34
2022-11-20T12:48:30.092Z,144244.19
2022-11-20T12:51:39.737Z,144256.28
2022-11-20T12:54:37.657Z,144270.81
2022-11-20T12:57:18.319Z,144244.19
2022-11-20T13:00:15.529Z,144270.81
2022-11-20T13:02:54.413Z,144269.59
2022-11-20T13:05:37.711Z,144236.91
2022-11-20T13:08:09.811Z,144241.72
2022-11-20T13:10:57.003Z,144239.34
2022-11-20T13:13:43.098Z,144257.50
2022-11-20T13:16:14.857Z,144264.72
2022-11-20T13:18:43.563Z,144174.00
2022-11-20T13:21:19.170Z,144178.88
2022-11-20T13:23:46.508Z,144265.97
2022-11-20T13:26:22.915Z,144259.88
2022-11-20T13:29:12.295Z,144259.88
2022-11-20T13:31:47.921Z,144244.19
2022-11-20T13:34:25.497Z,144222.41
2022-11-20T13:36:56.471Z,144262.31
2022-11-20T13:39:36.150Z,144258.69
2022-11-20T13:42:11.891Z,144250.22
2022-11-20T13:44:43.563Z,144232.06
2022-11-20T13:47:28.628Z,144230.88
2022-11-20T13:50:00.120Z,144211.53
2022-11-20T13:53:06.116Z,144188.53
2022-11-20T13:55:36.057Z,144239.34
2022-11-20T13:58:25.665Z,144224.84
2022-11-20T14:00:59.218Z,144222.41
2022-11-20T14:04:27.766Z,144195.78
2022-11-20T14:06:45.841Z,144216.38
2022-11-20T14:09:25.502Z,144200.63
2022-11-20T14:11:52.540Z,144200.63
2022-11-20T14:14:22.233Z,144221.19
2022-11-20T14:16:50.488Z,144085.75
2022-11-20T14:19:20.535Z,144203.06
2022-11-20T14:21:54.025Z,144218.75
2022-11-20T14:24:24.018Z,144240.53
2022-11-20T14:26:52.212Z,144236.91
2022-11-20T14:29:30.847Z,144186.09
2022-11-20T14:31:58.329Z,144217.56
2022-11-20T14:34:28.779Z,144180.06
2022-11-20T14:37:06.481Z,144178.88
2022-11-20T14:39:36.145Z,144180.06
2022-11-20T14:42:15.143Z,144188.53
2022-11-20T14:44:43.619Z,144197.03
2022-11-20T14:47:14.239Z,144193.38
2022-11-20T14:49:42.140Z,144195.78
2022-11-20T14:52:23.570Z,144181.28
2022-11-20T14:54:52.771Z,144166.75
2022-11-20T14:57:31.575Z,144176.44
2022-11-20T15:00:25.102Z,144161.94
2022-11-20T15:02:53.202Z,144158.28
2022-11-20T15:05:26.604Z,144167.97
2022-11-20T15:08:09.273Z,144171.59
2022-11-20T15:10:36.476Z,144152.25
2022-11-20T15:13:12.470Z,144164.31
2022-11-20T15:15:55.847Z,144177.63
2022-11-20T15:18:37.849Z,144166.75
2022-11-20T15:21:12.056Z,144172.81
2022-11-20T15:23:39.400Z,144147.44
2022-11-20T15:26:07.683Z,144182.47
2022-11-20T15:28:37.971Z,144187.31
2022-11-20T15:31:05.119Z,144190.94
2022-11-20T15:33:33.049Z,144190.94
2022-11-20T15:36:01.271Z,144186.09
2022-11-20T15:38:28.324Z,144186.09
2022-11-20T15:40:55.416Z,144175.25
2022-11-20T15:43:22.409Z,144142.59
2022-11-20T15:45:53.556Z,144187.31
2022-11-20T15:48:48.341Z,144184.91
2022-11-20T15:51:29.887Z,144193.38
2022-11-20T15:53:57.651Z,144172.81
2022-11-20T15:56:25.193Z,144195.78
2022-11-20T15:58:52.394Z,144189.75
2022-11-20T16:01:22.520Z,144207.88
2022-11-20T16:03:49.796Z,144200.63
2022-11-20T16:06:19.504Z,144204.25
2022-11-20T16:08:46.929Z,144204.25
2022-11-20T16:11:16.739Z,144135.31
2022-11-20T16:14:02.801Z,144212.72
2022-11-20T16:16:33.229Z,144215.16
2022-11-20T16:19:00.962Z,144207.88
2022-11-20T16:21:31.828Z,144220.00
2022-11-20T16:24:04.220Z,144227.22
2022-11-20T16:26:32.340Z,144220.00
2022-11-20T16:29:00.817Z,144212.72
2022-11-20T16:31:27.859Z,144224.84
2022-11-20T16:33:57.504Z,144178.88
2022-11-20T16:36:26.983Z,144246.56
2022-11-20T16:38:58.071Z,144238.16
2022-11-20T16:41:26.638Z,144239.34
2022-11-20T16:43:58.584Z,144249.00
2022-11-20T16:46:28.308Z,144212.72
2022-11-20T16:49:06.748Z,144244.19
2022-11-20T16:51:37.094Z,144238.16
2022-11-20T16:54:06.348Z,144251.47
2022-11-20T16:56:33.522Z,144265.97
2022-11-20T16:59:02.561Z,144268.34
2022-11-20T17:01:31.136Z,144230.88
2022-11-20T17:04:04.385Z,144307.09
2022-11-20T17:06:36.801Z,144255.03
2022-11-20T17:09:04.463Z,144324.06
2022-11-20T17:11:33.329Z,144340.97
2022-11-20T17:14:00.792Z,144338.56
2022-11-20T17:16:28.053Z,144348.25
2022-11-20T17:19:02.280Z,144345.78
2022-11-20T17:21:31.243Z,144354.28
2022-11-20T17:24:05.468Z,144351.88
2022-11-20T17:26:33.152Z,144350.63
2022-11-20T17:29:02.964Z,144357.91
2022-11-20T17:31:31.579Z,144297.44
2022-11-20T17:34:02.310Z,144287.75
2022-11-20T17:36:30.299Z,144357.91
2022-11-20T17:38:58.278Z,144314.34
2022-11-20T17:41:27.640Z,144371.22
2022-11-20T17:43:56.757Z,144370.03
2022-11-20T17:46:26.981Z,144357.91
2022-11-20T17:48:55.634Z,144376.06
2022-11-20T17:51:25.226Z,144383.34
2022-11-20T17:53:54.594Z,144331.28
2022-11-20T17:56:40.483Z,144362.75
2022-11-20T17:59:12.902Z,144360.34
2022-11-20T18:01:42.929Z,144354.28
2022-11-20T18:04:11.255Z,144350.63
2022-11-20T18:06:38.711Z,144338.56
2022-11-20T18:09:06.750Z,144324.06
2022-11-20T18:11:37.191Z,144311.94
2022-11-20T18:14:25.405Z,144324.06
2022-11-20T18:16:55.813Z,144316.78
2022-11-20T18:19:28.640Z,144309.50
2022-11-20T18:22:01.143Z,144309.50
2022-11-20T18:24:28.642Z,144309.50
2022-11-20T18:26:57.538Z,144316.78
2022-11-20T18:29:26.071Z,144307.09
2022-11-20T18:31:53.735Z,144309.50
2022-11-20T18:34:20.849Z,144279.28
2022-11-20T18:36:47.885Z,144288.94
2022-11-20T18:39:15.866Z,144285.31
2022-11-20T18:42:01.446Z,144264.72
2022-11-20T18:44:50.991Z,144280.47
2022-11-20T18:47:22.713Z,144287.75
2022-11-20T18:49:52.614Z,144296.19
2022-11-20T18:52:23.860Z,144246.56
2022-11-20T18:54:51.457Z,144307.09
2022-11-20T18:57:20.048Z,144320.41
2022-11-20T18:59:47.128Z,144336.13
2022-11-20T19:02:19.263Z,144332.47
2022-11-20T19:04:46.565Z,144331.28
2022-11-20T19:07:14.619Z,144324.06
2022-11-20T19:09:43.711Z,144268.34
2022-11-20T19:12:12.648Z,144290.16
2022-11-20T19:14:40.104Z,144325.25
2022-11-20T19:17:08.148Z,144314.34
2022-11-20T19:19:35.350Z,144293.78
2022-11-20T19:22:02.660Z,144292.59
2022-11-20T19:24:29.818Z,144285.31
2022-11-20T19:26:57.120Z,144287.75
2022-11-20T19:29:24.957Z,144241.72
2022-11-20T19:31:53.195Z,144272.00
2022-11-20T19:34:20.314Z,144276.84
2022-11-20T19:36:47.362Z,144263.53
2022-11-20T19:39:14.545Z,144263.53
2022-11-20T19:41:41.980Z,144268.34
2022-11-20T19:44:12.402Z,144262.31
2022-11-20T19:46:40.151Z,144270.81
2022-11-20T19:49:10.052Z,144311.94
2022-11-20T19:51:39.708Z,144321.59
2022-11-20T19:54:06.943Z,144314.34
2022-11-20T19:56:34.752Z,144339.75
2022-11-20T19:59:01.987Z,144345.78
2022-11-20T20:01:31.224Z,144344.59
2022-11-20T20:04:05.119Z,144374.88
2022-11-20T20:06:34.412Z,144361.56
2022-11-20T20:09:05.400Z,144394.22
2022-11-20T20:11:34.154Z,144422.06
2022-11-20T20:14:06.042Z,144431.72
2022-11-20T20:16:34.282Z,144384.53
2022-11-20T20:19:02.712Z,144477.72
2022-11-20T20:21:31.431Z,144482.56
2022-11-20T20:23:59.290Z,144432.97
2022-11-20T20:26:29.166Z,144499.53
2022-11-20T20:28:56.516Z,144516.50
2022-11-20T20:31:26.970Z,144533.47
2022-11-20T20:33:54.445Z,144527.38
2022-11-20T20:36:24.085Z,144564.94
2022-11-20T20:38:55.651Z,144493.50
2022-11-20T20:41:24.715Z,144580.66
2022-11-20T20:44:10.833Z,144506.81
2022-11-20T20:46:38.192Z,144607.31
2022-11-20T20:49:05.407Z,144597.63
2022-11-20T20:51:32.425Z,144620.63
2022-11-20T20:53:59.508Z,144637.59
2022-11-20T20:56:26.682Z,144604.88
2022-11-20T20:58:53.706Z,144636.38
2022-11-20T21:01:21.465Z,144641.22
2022-11-20T21:03:48.593Z,144648.50
2022-11-20T21:06:15.623Z,144587.94
2022-11-20T21:08:44.408Z,144636.38
2022-11-20T21:11:14.354Z,144626.69
2022-11-20T21:13:43.392Z,144608.50
2022-11-20T21:16:11.692Z,144618.19
2022-11-20T21:18:38.733Z,144619.44
2022-11-20T21:21:26.551Z,144614.56
2022-11-20T21:23:53.815Z,144626.69
2022-11-20T21:26:21.916Z,144578.22
2022-11-20T21:28:52.389Z,144629.13
2022-11-20T21:31:23.426Z,144621.84
2022-11-20T21:33:53.459Z,144624.28
2022-11-20T21:36:28.628Z,144612.16
2022-11-20T21:38:56.985Z,144635.16
2022-11-20T21:41:26.421Z,144575.81
2022-11-20T21:44:28.915Z,144649.69
2022-11-20T21:46:43.814Z,144649.69
2022-11-20T21:49:11.647Z,144653.34
2022-11-20T21:51:38.830Z,144650.91
2022-11-20T21:54:05.955Z,144595.19
2022-11-20T21:56:33.775Z,144656.97
2022-11-20T21:59:00.939Z,144663.03
2022-11-20T22:01:30.010Z,144665.47
2022-11-20T22:04:02.241Z,144671.56
2022-11-20T22:06:34.050Z,144585.50
2022-11-20T22:09:01.845Z,144670.34
2022-11-20T22:11:29.144Z,144666.66
2022-11-20T22:14:14.633Z,144661.81
2022-11-20T22:16:41.726Z,144663.03
2022-11-20T22:19:08.825Z,144600.03
2022-11-20T22:21:39.103Z,144667.88
2022-11-20T22:24:06.183Z,144667.88
2022-11-20T22:26:39.890Z,144661.81
2022-11-20T22:29:08.450Z,144665.47
2022-11-20T22:31:35.464Z,144666.66
2022-11-20T22:34:02.517Z,144664.22
2022-11-20T22:36:31.171Z,144667.88
2022-11-20T22:38:58.553Z,144665.47
2022-11-20T22:41:28.901Z,144667.88
2022-11-20T22:43:58.448Z,144665.47
2022-11-20T22:46:27.066Z,144674.00
2022-11-20T22:48:56.569Z,144672.75
2022-11-20T22:51:25.967Z,144670.34
2022-11-20T22:53:53.341Z,144656.97
2022-11-20T22:56:21.076Z,144667.88
2022-11-20T22:58:50.274Z,144556.47
2022-11-20T23:01:20.319Z,144664.22
2022-11-20T23:03:49.636Z,144658.19
2022-11-20T23:06:18.480Z,144551.63
2022-11-20T23:08:46.424Z,144629.13
2022-11-20T23:11:25.000Z,144667.88
2022-11-20T23:13:54.192Z,144669.06
2022-11-20T23:16:21.249Z,144665.47
2022-11-20T23:18:48.221Z,144670.34
2022-11-20T23:21:17.719Z,144667.88
2022-11-20T23:23:49.694Z,144665.47
2022-11-20T23:26:18.344Z,144658.19
2022-11-20T23:28:46.152Z,144667.88
2022-11-20T23:31:14.686Z,144670.34
2022-11-20T23:33:43.964Z,144663.03
2022-11-20T23:36:11.878Z,144670.34
2022-11-20T23:38:39.223Z,144665.47
2022-11-20T23:41:06.484Z,144665.47
2022-11-20T23:43:33.460Z,144665.47
2022-11-20T23:46:01.862Z,144658.19
2022-11-20T23:48:31.768Z,144661.81
2022-11-20T23:50:58.816Z,144626.69
2022-11-20T23:53:26.326Z,144650.91
2022-11-20T23:55:55.705Z,144633.97
2022-11-20T23:58:24.802Z,144625.47
